Flight Track Log - Related Links

Times and Time Zones

All times are in EST time to prevent confusion due to time zone crossing. See the N1576V flight status page for this flight to view local times or setup timezone preferences in your user account.

Time Position Orientation Groundspeed Altitude Reporting Facility
EST Latitude Longitude Course Direction KTS MPH feet Rate Location/Type
Fri 09:15:19 PM 25.6508 -80.4131 46° Northeast 86 99 500  Level Miami Center
Fri 09:16:45 PM 25.6722 -80.3883 46° Northeast 85 98 1,400 588 Climbing Miami Center
Fri 09:17:52 PM 25.6842 -80.4094 302° West 70 81 2,000 331 Climbing Miami Center
Fri 09:18:52 PM 25.6878 -80.4350 279° West 85 98 2,100  Climbing Miami Center
Fri 09:19:47 PM 25.6914 -80.4581 280° West 112 129 2,000 -49 Descending Miami Center
Fri 09:20:55 PM 25.7033 -80.4886 293° West 93 107 2,000 49 Level Miami Center
Fri 09:21:50 PM 25.7194 -80.5053 317° Northwest 109 125 2,100 52 Climbing Miami Center
Fri 09:22:51 PM 25.7444 -80.5128 345° North 99 114 2,100 45 Level Miami Center
Fri 09:24:04 PM 25.7775 -80.5278 338° Northwest 106 122 2,200  Climbing Miami Center
Fri 09:24:59 PM 25.8044 -80.5353 346° North 106 122 2,100 -103 Descending Miami Center
Fri 09:26:00 PM 25.8311 -80.5478 337° Northwest 102 117 2,000 -45 Descending Miami Center
Fri 09:27:13 PM 25.8644 -80.5603 341° North 101 116 2,000  Level Miami Center
Fri 09:28:02 PM 25.8872 -80.5681 343° North 106 122 2,000 273 Level Miami Center
Fri 09:29:03 PM 25.9139 -80.5781 341° North 91 105 2,500 492 Climbing Miami Center
Fri 09:30:04 PM 25.9367 -80.5903 334° Northwest 85 98 3,000 492 Climbing Miami Center
Fri 09:31:05 PM 25.9531 -80.6047 322° Northwest 79 91 3,500 443 Climbing Miami Center
Fri 09:32:06 PM 25.9714 -80.6192 325° Northwest 80 92 3,900 295 Climbing Miami Center
Fri 09:33:07 PM 25.9900 -80.6336 325° Northwest 88 101 4,100 98 Climbing Miami Center
Fri 09:34:08 PM 26.0164 -80.6528 327° Northwest 101 116 4,100 -49 Level Miami Center
Fri 09:35:09 PM 26.0369 -80.6719 320° Northwest 96 110 4,000 -98 Descending Miami Center
Fri 09:36:10 PM 26.0594 -80.6889 326° Northwest 94 108 3,900  Descending Miami Center
Fri 09:36:39 PM 26.0717 -80.6961 332° Northwest 96 110 4,000 197 Climbing Miami Center
Fri 09:37:11 PM 26.0758 -80.7056 296° West 86 99 4,100 100 Climbing Miami Center
Fri 09:37:39 PM 26.0881 -80.7106 340° North 88 101 4,100 -98 Level Miami Center
Fri 09:38:12 PM 26.0981 -80.7272 304° West 95 109 4,000 -100 Descending Miami Center
Fri 09:38:39 PM 26.1086 -80.7297 348° North 98 113 4,000 -69 Level Miami Center
Fri 09:39:39 PM 26.1289 -80.7489 320° Northwest 103 119 3,900 150 Descending Miami Center
Fri 09:40:39 PM 26.1514 -80.7636 330° Northwest 103 119 4,300 400 Climbing Miami Center
Fri 09:41:39 PM 26.1761 -80.7758 336° Northwest 98 113 4,700 350 Climbing Miami Center
Fri 09:42:39 PM 26.1989 -80.7883 334° Northwest 92 106 5,000 300 Climbing Miami Center
Fri 09:43:39 PM 26.2108 -80.8072 305° West 86 99 5,300 300 Climbing Miami Center
Fri 09:44:39 PM 26.2314 -80.8217 328° Northwest 86 99 5,600 300 Climbing Miami Center
Fri 09:45:39 PM 26.2558 -80.8389 328° Northwest 86 99 5,900 200 Climbing Miami Center
Fri 09:46:39 PM 26.2742 -80.8556 321° Northwest 86 99 6,000 100 Climbing Miami Center
Fri 09:47:39 PM 26.3008 -80.8775 324° Northwest 91 105 6,100 50 Climbing Miami Center
Fri 09:48:39 PM 26.3211 -80.8942 324° Northwest 99 114 6,100  Level Miami Center
Fri 09:49:39 PM 26.3478 -80.9161 324° Northwest 105 121 6,100  Level Miami Center
Fri 09:50:39 PM 26.3683 -80.9331 324° Northwest 105 121 6,100 -50 Level Miami Center
Fri 09:51:39 PM 26.3969 -80.9503 332° Northwest 105 121 6,000 -100 Descending Miami Center
Fri 09:52:39 PM 26.4172 -80.9672 323° Northwest 100 115 5,900  Descending Miami Center
Fri 09:53:39 PM 26.4397 -80.9889 319° Northwest 95 109 6,000  Climbing Miami Center
Fri 09:54:39 PM 26.4581 -81.0081 317° Northwest 95 109 5,900 -50 Descending Miami Center
Fri 09:55:39 PM 26.4739 -81.0317 307° West 90 104 5,900  Level Miami Center
Fri 09:56:39 PM 26.4922 -81.0556 311° West 95 109 5,900  Level Miami Center
Fri 09:57:39 PM 26.5125 -81.0750 319° Northwest 95 109 5,900  Level Miami Center
Fri 09:58:39 PM 26.5283 -81.0986 307° West 95 109 5,900 50 Level Miami Center
Fri 09:59:39 PM 26.5444 -81.1200 310° West 95 109 6,000 50 Climbing Miami Center
Fri 10:00:39 PM 26.5586 -81.1417 306° West 90 104 6,000 -50 Level Miami Center
Fri 10:01:39 PM 26.5725 -81.1653 303° West 84 97 5,900  Descending Miami Center
Fri 10:02:39 PM 26.5950 -81.1822 326° Northwest 84 97 6,000 50 Climbing Miami Center
Fri 10:03:39 PM 26.6153 -81.1969 327° Northwest 89 102 6,000  Level Miami Center
Fri 10:07:38 PM 26.6794 -81.2900 320° Northwest 102 117 6,000 -20 Level Miami Center
Fri 10:08:38 PM 26.6956 -81.3069 317° Northwest 102 117 5,900 -50 Descending Miami Center
Fri 10:09:38 PM 26.7158 -81.3286 316° Northwest 97 112 5,900  Level Miami Center
Fri 10:10:38 PM 26.7383 -81.3433 330° Northwest 97 112 5,900 50 Level Miami Center
Fri 10:11:39 PM 26.7586 -81.3606 323° Northwest 97 112 6,000 50 Climbing Miami Center
Fri 10:12:00 PM 26.7657 -81.3361 320° Northwest  Level FlightAware Approximate
Fri 10:12:39 PM 26.7811 -81.3753 330° Northwest 92 106 6,000  Level Miami Center
Fri 10:13:39 PM 26.8056 -81.3925 328° Northwest 92 106 5,900 -50 Descending Miami Center
Fri 10:14:39 PM 26.8281 -81.4097 326° Northwest 97 112 5,900 50 Level Miami Center
Fri 10:15:39 PM 26.8442 -81.4289 313° West 92 106 6,000 100 Climbing Miami Center
Fri 10:16:39 PM 26.8581 -81.4528 303° West 92 106 6,100 50 Climbing Miami Center
Fri 10:17:39 PM 26.8742 -81.4744 310° West 92 106 6,100 -100 Level Miami Center
Fri 10:18:39 PM 26.8900 -81.4936 313° West 92 106 5,900 -100 Descending Miami Center
Fri 10:19:39 PM 26.9081 -81.5175 310° West 92 106 5,900 50 Level Miami Center
Fri 10:20:39 PM 26.9283 -81.5369 319° Northwest 92 106 6,000 50 Climbing Miami Center
Fri 10:21:39 PM 26.9444 -81.5586 310° West 92 106 6,000  Level Miami Center
Fri 10:22:39 PM 26.9667 -81.5758 325° Northwest 92 106 6,000  Level Miami Center
Fri 10:23:39 PM 26.9850 -81.5953 317° Northwest 92 106 6,000  Level Miami Center
Fri 10:24:38 PM 27.0031 -81.6169 313° West 92 106 6,000 50 Level Miami Center
Fri 10:25:39 PM 27.0211 -81.6386 313° West 92 106 6,100 50 Climbing Miami Center
Fri 10:26:38 PM 27.0414 -81.6558 323° Northwest 92 106 6,100  Level Miami Center
Fri 10:27:38 PM 27.0553 -81.6772 306° West 92 106 6,100  Level Miami Center
Fri 10:28:38 PM 27.0819 -81.6900 337° Northwest 92 106 6,100  Level Miami Center
Fri 10:29:38 PM 27.1044 -81.7050 329° Northwest 92 106 6,100  Level Miami Center
Fri 10:30:38 PM 27.1206 -81.7267 310° West 92 106 6,100  Level Miami Center
Fri 10:31:38 PM 27.1364 -81.7483 309° West 87 100 6,100  Level Miami Center
Fri 10:32:38 PM 27.1547 -81.7656 320° Northwest 87 100 6,100  Level Miami Center
Fri 10:33:38 PM 27.1747 -81.7850 319° Northwest 92 106 6,100  Level Miami Center
Fri 10:34:39 PM 27.1908 -81.8044 313° West 92 106 6,100 -50 Level Miami Center
Fri 10:35:38 PM 27.2153 -81.8217 328° Northwest 92 106 6,000 -50 Descending Miami Center
Fri 10:36:39 PM 27.2356 -81.8414 319° Northwest 97 112 6,000  Level Miami Center
Fri 10:37:38 PM 27.2472 -81.8650 299° West 91 105 6,000  Level Miami Center
Fri 10:38:39 PM 27.2528 -81.8886 285° West 84 97 6,000 50 Level Miami Center
Fri 10:39:39 PM 27.2664 -81.9103 305° West 84 97 6,100  Climbing Miami Center
Fri 10:40:39 PM 27.2803 -81.9342 303° West 84 97 6,000 -100 Descending Miami Center
Fri 10:41:39 PM 27.2942 -81.9558 306° West 84 97 5,900 -50 Descending Miami Center
Fri 10:42:38 PM 27.3144 -81.9756 319° Northwest 84 97 5,900 50 Level Miami Center
Fri 10:43:39 PM 27.3325 -81.9903 324° Northwest 84 97 6,000 150 Climbing Miami Center
Fri 10:44:38 PM 27.3550 -82.0078 325° Northwest 89 102 6,200 101 Climbing Miami Center
Fri 10:45:38 PM 27.3753 -82.0250 323° Northwest 89 102 6,200 -50 Level Miami Center
Fri 10:46:39 PM 27.3933 -82.0444 316° Northwest 89 102 6,100 -50 Descending Miami Center
Fri 10:47:39 PM 27.4133 -82.0642 319° Northwest 89 102 6,100 50 Level Miami Center
Fri 10:48:38 PM 27.4336 -82.0836 320° Northwest 94 108 6,200 -50 Climbing Miami Center
Fri 10:49:39 PM 27.4517 -82.1056 313° West 94 108 6,000 -99 Descending Miami Center
Fri 10:50:39 PM 27.4694 -82.1275 312° West 94 108 6,000 -100 Level Miami Center
Fri 10:51:39 PM 27.4875 -82.1494 313° West 94 108 5,800 -100 Descending Miami Center
Fri 10:52:39 PM 27.5078 -82.1689 320° Northwest 94 108 5,800 -50 Level Miami Center
Fri 10:53:38 PM 27.5236 -82.1908 309° West 94 108 5,700 -202 Descending Miami Center
Fri 10:54:38 PM 27.5436 -82.2106 319° Northwest 94 108 5,400 -350 Descending Miami Center
Fri 10:55:38 PM 27.5533 -82.2342 295° West 89 102 5,000 -446 Descending Miami Center
Fri 10:57:33 PM 27.5833 -82.2833 305° West 97 112 4,100 -343 Descending Tampa TRACON
Fri 10:58:33 PM 27.6000 -82.3167 299° West 82 94 4,000 -50 Descending Tampa TRACON
Fri 10:59:33 PM 27.6167 -82.3333 318° Northwest 82 94 4,000  Level Tampa TRACON
Fri 11:00:33 PM 27.6167 -82.3500 270° West 80 92 4,000  Level Tampa TRACON
Fri 11:01:27 PM 27.6333 -82.3667 318° Northwest 81 93 4,000  Level Tampa TRACON
Fri 11:02:27 PM 27.6500 -82.3833 318° Northwest 83 96 4,000  Level Tampa TRACON
Fri 11:03:21 PM 27.6500 -82.4167 270° West 81 93 4,000  Level Tampa TRACON
Fri 11:04:15 PM 27.6667 -82.4333 318° Northwest 81 93 4,000  Level Tampa TRACON
Fri 11:05:15 PM 27.6833 -82.4500 318° Northwest 84 97 4,000 -52 Level Tampa TRACON
Fri 11:06:10 PM 27.7000 -82.4667 318° Northwest 91 105 3,900  Descending Tampa TRACON
Fri 11:07:10 PM 27.7167 -82.5000 299° West 91 105 4,000 50 Climbing Tampa TRACON
Fri 11:08:10 PM 27.7167 -82.5167 270° West 83 96 4,000 -105 Level Tampa TRACON
Fri 11:09:04 PM 27.7333 -82.5333 318° Northwest 81 93 3,800 -474 Descending Tampa TRACON
Fri 11:10:04 PM 27.7500 -82.5500 318° Northwest 78 90 3,100 -550 Descending Tampa TRACON
Fri 11:11:04 PM 27.7500 -82.5833 270° West 86 99 2,700 -250 Descending Tampa TRACON
Fri 11:12:04 PM 27.7667 -82.6000 318° Northwest 84 97 2,600  Descending Tampa TRACON
Fri 11:13:04 PM 27.7667 -82.6333 270° West 81 93 2,700 100 Climbing Tampa TRACON
Fri 11:14:04 PM 27.7833 -82.6500 319° Northwest 83 96 2,800 -200 Climbing Tampa TRACON
Fri 11:15:04 PM 27.8000 -82.6667 319° Northwest 100 115 2,300 -350 Descending Tampa TRACON
Fri 11:16:04 PM 27.8167 -82.6833 319° Northwest 102 117 2,100 -250 Descending Tampa TRACON
Fri 11:17:04 PM 27.8500 -82.7000 336° Northwest 108 124 1,800 -300 Descending Tampa TRACON

Login

Don't have an account? Register now (free) for customized features, flight alerts, and more!